Time;durP1;ratioP1;P1;durP2;ratioP2;P2;SDS_P1;SDS_P2;PMS_P1;PMS_P2;Temp;Humidity;BMP_temperature;BMP_pressure;BME280_temperature;BME280_humidity;BME280_pressure;Samples;Min_cycle;Max_cycle;Signal;HPM_P1;HPM_P2
2021/03/16 00:01:48;;;;;;;1.30;1.20;;;;;;;11.88;30.03;99940.47;5070438;28;20070;-67
2021/03/16 00:04:16;;;;;;;2.30;1.00;;;;;;;11.89;30.08;99942.16;5070197;28;20041;-67
2021/03/16 00:07:07;;;;;;;1.80;1.40;;;;;;;11.77;30.28;99946.31;5072321;28;20051;-67
2021/03/16 00:09:33;;;;;;;4.72;1.13;;;;;;;11.76;30.12;99944.59;5074125;28;20122;-67
2021/03/16 00:11:59;;;;;;;2.40;1.30;;;;;;;11.83;30.20;99945.13;5072440;28;20127;-67
2021/03/16 00:14:26;;;;;;;1.25;0.95;;;;;;;11.71;30.57;99938.81;5074824;28;20062;-68
2021/03/16 00:16:52;;;;;;;1.58;1.02;;;;;;;11.82;30.27;99935.59;5071955;28;20051;-67
2021/03/16 00:19:20;;;;;;;1.30;1.20;;;;;;;11.80;30.63;99937.44;5076619;28;20123;-67
2021/03/16 00:21:47;;;;;;;1.20;1.10;;;;;;;11.83;30.35;99950.38;5071560;28;20525;-67
2021/03/16 00:24:13;;;;;;;1.13;1.00;;;;;;;11.74;29.94;99950.88;5074725;28;20102;-67
2021/03/16 00:26:40;;;;;;;0.80;0.80;;;;;;;11.77;30.12;99950.66;5076661;28;20038;-67
2021/03/16 00:29:06;;;;;;;4.05;1.30;;;;;;;11.69;30.09;99958.13;5074641;28;20044;-67
2021/03/16 00:31:33;;;;;;;1.42;1.00;;;;;;;11.72;30.21;99960.56;5072607;28;20043;-67
2021/03/16 00:33:59;;;;;;;2.10;1.10;;;;;;;11.72;30.30;99969.25;5077820;28;20048;-67
2021/03/16 00:36:26;;;;;;;1.33;1.20;;;;;;;11.65;30.48;99967.06;5073462;28;20123;-67
2021/03/16 00:38:52;;;;;;;0.98;0.90;;;;;;;11.53;30.68;99971.25;5074392;28;20067;-69
2021/03/16 00:41:18;;;;;;;1.00;1.00;;;;;;;11.54;31.09;99981.59;5070430;28;20529;-68
2021/03/16 00:43:46;;;;;;;1.80;1.13;;;;;;;11.50;31.17;99994.91;5075230;28;20037;-69
2021/03/16 00:46:13;;;;;;;2.05;1.30;;;;;;;11.36;31.76;100003.53;5071935;28;20056;-70
2021/03/16 00:48:39;;;;;;;2.88;1.30;;;;;;;11.31;31.80;100004.72;5075217;28;20040;-69
2021/03/16 00:51:07;;;;;;;1.25;1.20;;;;;;;11.43;32.21;100004.88;5070050;28;20036;-69
2021/03/16 00:53:34;;;;;;;2.90;1.40;;;;;;;11.33;32.22;100002.88;5070631;28;20036;-70
2021/03/16 00:56:06;;;;;;;1.65;1.45;;;;;;;11.38;32.05;100009.50;5067783;28;20048;-69
2021/03/16 00:58:33;;;;;;;1.88;1.20;;;;;;;11.44;32.07;100009.16;5067756;28;20090;-68
2021/03/16 01:00:59;;;;;;;1.58;1.30;;;;;;;11.16;32.49;100014.25;5071667;28;20445;-69
2021/03/16 01:03:27;;;;;;;3.47;1.40;;;;;;;11.30;32.39;100010.88;5059043;28;20130;-69
2021/03/16 01:05:55;;;;;;;1.58;1.30;;;;;;;11.25;32.33;100011.97;5060822;28;20040;-71
2021/03/16 01:08:22;;;;;;;3.65;1.42;;;;;;;11.26;32.17;100005.00;5058493;28;20052;-70
2021/03/16 01:10:50;;;;;;;1.65;1.08;;;;;;;11.28;32.13;100003.13;5068581;28;20072;-70
2021/03/16 01:13:18;;;;;;;3.83;1.45;;;;;;;11.18;32.44;100008.00;5070059;28;20391;-68
2021/03/16 01:15:45;;;;;;;1.55;1.42;;;;;;;11.21;32.64;99999.19;5069130;28;20050;-69
2021/03/16 01:18:13;;;;;;;2.13;1.20;;;;;;;11.31;32.48;99997.75;5069454;28;20059;-69
2021/03/16 01:20:39;;;;;;;1.48;1.00;;;;;;;11.16;32.22;100004.66;5073858;28;20387;-69
2021/03/16 01:23:06;;;;;;;1.30;1.20;;;;;;;10.95;32.68;100009.31;5068349;28;20075;-70
2021/03/16 01:25:32;;;;;;;1.60;1.30;;;;;;;11.00;32.57;100012.50;5073036;28;20132;-70
2021/03/16 01:27:58;;;;;;;1.20;1.10;;;;;;;11.02;32.79;100015.88;5072643;28;20048;-70
2021/03/16 01:30:25;;;;;;;1.23;1.10;;;;;;;11.15;32.55;100008.19;5069532;28;20042;-69
2021/03/16 01:32:53;;;;;;;1.35;1.20;;;;;;;11.20;32.36;100007.94;5072902;28;20044;-70
2021/03/16 01:35:22;;;;;;;1.27;1.17;;;;;;;11.07;32.58;100005.16;5074265;28;20040;-69
2021/03/16 01:37:53;;;;;;;1.60;1.33;;;;;;;11.13;32.35;100009.19;5073018;28;20571;-70
2021/03/16 01:40:38;;;;;;;1.75;1.60;;;;;;;11.10;32.32;100012.84;5075766;28;20048;-69
2021/03/16 01:43:36;;;;;;;2.10;1.33;;;;;;;11.16;32.64;100009.03;5069919;28;20037;-70
2021/03/16 01:46:04;;;;;;;4.32;1.48;;;;;;;11.20;32.62;100007.94;5054532;28;20113;-69
2021/03/16 01:48:34;;;;;;;3.65;1.85;;;;;;;11.19;32.47;100014.09;5073194;28;20093;-69
2021/03/16 01:51:03;;;;;;;1.10;1.00;;;;;;;11.18;32.22;100013.22;5074725;28;20433;-69
2021/03/16 01:53:29;;;;;;;4.32;1.40;;;;;;;11.11;32.52;100005.84;5072437;28;20063;-69
2021/03/16 01:55:57;;;;;;;1.77;1.40;;;;;;;11.12;32.51;100004.91;5071617;28;20048;-69
2021/03/16 01:58:44;;;;;;;2.78;1.77;;;;;;;10.99;33.03;100008.22;5067237;28;20059;-69
2021/03/16 02:01:28;;;;;;;2.03;1.50;;;;;;;11.01;33.12;100011.56;5075521;28;20094;-69
2021/03/16 02:04:13;;;;;;;3.42;1.50;;;;;;;11.10;33.35;100006.78;5071868;28;20093;-69
2021/03/16 02:07:17;;;;;;;;;;;;;;;11.02;33.09;100013.28;5068054;28;20051;-69
2021/03/16 02:10:12;;;;;;;1.33;1.23;;;;;;;10.98;33.08;100009.16;5069049;28;19927;-69
2021/03/16 02:13:15;;;;;;;1.27;1.27;;;;;;;11.09;33.45;100011.16;5069119;28;20117;-69
2021/03/16 02:16:14;;;;;;;1.30;1.20;;;;;;;11.14;33.09;100013.50;5069507;28;20054;-69
2021/03/16 02:19:01;;;;;;;1.67;1.58;;;;;;;11.17;33.41;100023.75;5066646;28;20051;-70
2021/03/16 02:21:48;;;;;;;3.60;1.80;;;;;;;11.09;33.29;100020.75;5069640;28;20052;-69
2021/03/16 02:24:40;;;;;;;3.08;1.25;;;;;;;11.02;33.85;100025.44;5067630;28;20044;-69
2021/03/16 02:27:28;;;;;;;1.98;1.25;;;;;;;11.14;33.61;100029.16;5074434;28;20166;-69
2021/03/16 02:30:16;;;;;;;1.67;1.40;;;;;;;10.90;34.35;100026.97;5069321;28;20048;-69
2021/03/16 02:33:04;;;;;;;1.60;1.50;;;;;;;10.85;34.61;100028.97;5070537;28;20055;-70
2021/03/16 02:35:51;;;;;;;2.40;1.40;;;;;;;10.79;34.52;100034.53;5072094;28;20051;-70
2021/03/16 02:38:41;;;;;;;1.75;1.42;;;;;;;10.75;34.35;100048.66;5065566;28;20051;-69
2021/03/16 02:41:28;;;;;;;1.63;1.50;;;;;;;10.73;34.78;100055.72;5075028;28;20444;-69
2021/03/16 02:44:13;;;;;;;2.22;1.70;;;;;;;10.91;33.48;100054.72;5072677;28;20517;-70
2021/03/16 02:46:58;;;;;;;2.50;2.30;;;;;;;11.02;33.31;100052.41;5073328;28;20402;-70
2021/03/16 02:49:46;;;;;;;3.63;1.40;;;;;;;11.02;32.89;100052.41;5072182;28;20039;-70
2021/03/16 02:52:33;;;;;;;1.63;1.52;;;;;;;11.08;32.34;100056.44;5071838;28;20121;-70
2021/03/16 02:55:18;;;;;;;1.80;1.33;;;;;;;11.08;31.75;100050.34;5074982;28;20178;-70
2021/03/16 02:58:05;;;;;;;2.35;1.17;;;;;;;11.15;31.83;100046.50;5075272;28;20121;-70
2021/03/16 03:00:51;;;;;;;2.13;1.58;;;;;;;11.01;30.87;100052.47;5072624;28;20047;-70
2021/03/16 03:03:39;;;;;;;1.00;1.00;;;;;;;11.07;30.88;100059.09;5074413;28;20055;-70
2021/03/16 03:06:25;;;;;;;3.33;1.30;;;;;;;11.12;30.34;100060.53;5073154;28;20052;-71
2021/03/16 03:09:12;;;;;;;1.13;1.10;;;;;;;11.20;30.17;100060.13;5073969;28;20613;-71
2021/03/16 03:11:59;;;;;;;1.20;1.10;;;;;;;11.23;29.88;100065.16;5073113;28;20043;-71
2021/03/16 03:14:43;;;;;;;1.88;1.20;;;;;;;11.20;30.13;100068.78;5071514;28;20408;-70
2021/03/16 03:17:28;;;;;;;1.30;1.10;;;;;;;11.19;30.01;100068.88;5070594;28;20125;-70
2021/03/16 03:20:15;;;;;;;6.95;1.45;;;;;;;11.09;29.89;100076.38;5075162;28;20146;-70
2021/03/16 03:23:21;;;;;;;1.02;1.00;;;;;;;11.10;29.68;100074.59;5078645;28;20556;-70
2021/03/16 03:26:20;;;;;;;0.88;0.77;;;;;;;11.05;30.01;100082.69;5075969;28;20048;-70
2021/03/16 03:29:07;;;;;;;1.63;1.00;;;;;;;11.13;29.93;100087.47;5072946;28;20056;-70
2021/03/16 03:31:52;;;;;;;2.83;1.00;;;;;;;11.08;29.90;100092.97;5073556;28;20125;-71
2021/03/16 03:34:38;;;;;;;0.90;0.90;;;;;;;11.09;30.18;100092.03;5070571;28;20069;-71
2021/03/16 03:37:25;;;;;;;1.05;0.80;;;;;;;11.01;29.81;100108.06;5072078;28;20067;-71
2021/03/16 03:40:12;;;;;;;1.05;0.80;;;;;;;10.96;29.95;100110.09;5074012;28;20066;-71
2021/03/16 03:42:58;;;;;;;1.00;0.90;;;;;;;10.87;29.74;100113.22;5069753;28;20048;-71
2021/03/16 03:45:45;;;;;;;5.25;1.23;;;;;;;10.88;29.88;100107.06;5074206;28;20110;-70
2021/03/16 03:48:30;;;;;;;1.85;0.90;;;;;;;10.84;30.02;100109.91;5075117;28;20122;-70
2021/03/16 03:51:17;;;;;;;;;;;;;;;10.90;30.40;100107.81;5072646;28;20054;-71
2021/03/16 03:54:04;;;;;;;2.47;0.95;;;;;;;10.82;29.88;100115.22;5072835;28;19991;-71
2021/03/16 03:56:49;;;;;;;0.70;0.70;;;;;;;10.68;30.60;100115.94;5069330;28;20047;-71
2021/03/16 03:59:35;;;;;;;0.90;0.90;;;;;;;10.68;29.88;100113.31;5072969;28;20533;-70
2021/03/16 04:02:20;;;;;;;4.43;0.90;;;;;;;10.59;30.72;100123.38;5073625;28;20039;-70
2021/03/16 04:05:07;;;;;;;1.40;1.10;;;;;;;10.54;30.88;100122.78;5073611;28;20070;-70
2021/03/16 04:07:54;;;;;;;0.98;0.88;;;;;;;10.59;30.36;100123.38;5073893;28;20059;-71
2021/03/16 04:10:39;;;;;;;0.80;0.80;;;;;;;10.43;30.88;100126.78;5069112;28;20055;-69
2021/03/16 04:13:25;;;;;;;0.82;0.82;;;;;;;10.41;30.94;100123.41;5069388;28;20044;-70
2021/03/16 04:16:10;;;;;;;1.92;1.00;;;;;;;10.45;31.39;100126.72;5073640;28;20047;-70
2021/03/16 04:18:57;;;;;;;1.23;1.08;;;;;;;10.40;30.92;100118.28;5068853;28;20054;-71
2021/03/16 04:21:42;;;;;;;0.70;0.70;;;;;;;10.49;30.45;100102.16;5073514;28;20059;-69
2021/03/16 04:24:29;;;;;;;0.80;0.80;;;;;;;10.52;30.38;100107.22;5069023;28;20052;-69
2021/03/16 04:27:14;;;;;;;1.15;1.02;;;;;;;10.47;30.02;100110.06;5074641;28;20094;-71
2021/03/16 04:30:00;;;;;;;1.15;0.80;;;;;;;10.40;29.96;100116.53;5070986;28;20059;-70
2021/03/16 04:32:46;;;;;;;0.73;0.73;;;;;;;10.43;29.68;100118.13;5075574;28;20055;-72
2021/03/16 04:35:31;;;;;;;0.70;0.70;;;;;;;10.47;29.40;100117.88;5071614;28;20406;-72
2021/03/16 04:38:16;;;;;;;2.83;0.90;;;;;;;10.41;29.55;100117.38;5069319;28;20056;-73
2021/03/16 04:41:02;;;;;;;1.95;0.90;;;;;;;10.43;29.56;100116.34;5069933;28;20067;-70
2021/03/16 04:43:47;;;;;;;3.33;0.90;;;;;;;10.44;29.22;100118.06;5073503;28;20040;-72
2021/03/16 04:46:32;;;;;;;1.00;0.80;;;;;;;10.42;29.25;100122.50;5068429;28;20055;-72
2021/03/16 04:49:17;;;;;;;;;;;;;;;10.40;29.10;100126.94;5069261;28;20166;-72
2021/03/16 04:52:02;;;;;;;1.52;1.13;;;;;;;10.39;28.63;100129.66;5065701;28;20020;-71
2021/03/16 04:54:47;;;;;;;2.67;1.50;;;;;;;10.34;29.53;100131.63;5073955;28;20175;-72
2021/03/16 04:57:31;;;;;;;;;;;;;;;10.34;29.25;100135.09;5073213;28;20067;-74
2021/03/16 05:00:17;;;;;;;3.40;1.60;;;;;;;10.33;28.59;100135.97;5074184;28;19926;-70
2021/03/16 05:03:02;;;;;;;3.67;1.70;;;;;;;10.29;28.78;100136.25;5070843;28;20066;-70
2021/03/16 05:05:47;;;;;;;2.75;1.50;;;;;;;10.32;28.88;100136.91;5066536;28;20064;-70
2021/03/16 05:08:32;;;;;;;;;;;;;;;10.31;28.87;100137.00;5062702;28;20051;-70
2021/03/16 05:11:17;;;;;;;1.35;1.02;;;;;;;10.32;28.47;100139.50;5064064;28;19970;-70
2021/03/16 05:14:02;;;;;;;;;;;;;;;10.29;28.23;100144.91;5067414;28;20056;-70
2021/03/16 05:16:47;;;;;;;1.02;0.85;;;;;;;10.19;28.17;100148.84;5056381;28;19927;-70
2021/03/16 05:19:32;;;;;;;;;;;;;;;10.26;28.16;100152.00;5067101;28;20060;-70
2021/03/16 05:22:16;;;;;;;1.00;0.90;;;;;;;10.31;28.03;100158.69;5063341;28;19938;-69
2021/03/16 05:25:02;;;;;;;0.90;0.90;;;;;;;10.24;27.97;100167.72;5071837;28;20616;-70
2021/03/16 05:27:47;;;;;;;0.98;0.90;;;;;;;10.19;27.57;100165.31;5064313;28;20509;-70
2021/03/16 05:30:32;;;;;;;0.90;0.82;;;;;;;10.16;27.79;100159.41;5048456;28;20183;-70
2021/03/16 05:33:19;;;;;;;0.90;0.80;;;;;;;10.25;27.89;100160.75;5048083;28;20060;-69
2021/03/16 05:36:04;;;;;;;0.93;0.90;;;;;;;10.15;28.14;100168.16;5051009;28;20522;-72
2021/03/16 05:38:49;;;;;;;0.80;0.80;;;;;;;10.16;27.88;100164.63;5052688;28;20064;-71
2021/03/16 05:41:40;;;;;;;;;;;;;;;10.20;27.66;100167.00;5047452;28;20056;-71
2021/03/16 05:44:26;;;;;;;2.38;0.80;;;;;;;10.21;27.72;100162.63;5049513;28;20009;-70
2021/03/16 05:47:13;;;;;;;0.80;0.80;;;;;;;10.08;27.58;100171.97;5047958;28;20056;-69
2021/03/16 05:49:59;;;;;;;0.95;0.95;;;;;;;10.18;27.57;100174.06;5048900;28;20517;-75
2021/03/16 05:52:45;;;;;;;4.05;0.90;;;;;;;10.21;27.68;100178.25;5050762;28;20047;-74
2021/03/16 05:55:31;;;;;;;0.80;0.80;;;;;;;10.19;27.65;100182.72;5051675;28;20577;-73
2021/03/16 05:58:15;;;;;;;;;;;;;;;10.21;27.36;100180.84;5049832;28;20051;-72
2021/03/16 06:01:01;;;;;;;1.10;1.10;;;;;;;10.26;26.95;100186.72;5052948;28;19943;-73
2021/03/16 06:03:46;;;;;;;;;;;;;;;10.29;27.21;100185.75;5050295;28;20040;-74
2021/03/16 06:06:31;;;;;;;2.47;0.90;;;;;;;10.36;27.35;100189.72;5051455;28;19940;-74
2021/03/16 06:09:17;;;;;;;0.98;0.77;;;;;;;10.40;27.47;100191.25;5052140;28;20056;-74
2021/03/16 06:12:02;;;;;;;2.15;0.90;;;;;;;10.41;27.14;100198.16;5051177;28;20497;-74
2021/03/16 06:14:50;;;;;;;0.90;0.90;;;;;;;10.55;27.44;100192.25;5051580;28;20051;-73
2021/03/16 06:17:41;;;;;;;;;;;;;;;11.37;26.10;100203.56;5047728;28;20175;-73
2021/03/16 06:20:33;;;;;;;1.23;1.00;;;;;;;12.01;25.32;100194.81;5052570;28;19927;-74
2021/03/16 06:23:19;;;;;;;8.73;1.40;;;;;;;12.52;24.54;100197.13;5047265;28;20055;-74
2021/03/16 06:26:13;;;;;;;;;;;;;;;13.18;23.89;100191.38;5050367;28;20044;-74
2021/03/16 06:29:09;;;;;;;1.08;1.00;;;;;;;13.12;23.20;100186.53;5044449;28;20001;-69
2021/03/16 06:31:54;;;;;;;1.15;1.05;;;;;;;12.92;23.47;100186.91;5051227;28;20056;-70
2021/03/16 06:34:39;;;;;;;1.23;1.10;;;;;;;12.33;24.06;100192.97;5045921;28;20218;-70
2021/03/16 06:37:24;;;;;;;1.38;1.27;;;;;;;12.51;24.01;100196.25;5049250;28;20094;-70
2021/03/16 06:40:10;;;;;;;3.85;1.30;;;;;;;12.43;24.08;100206.34;5051748;28;20047;-67
2021/03/16 06:43:06;;;;;;;5.68;1.80;;;;;;;12.35;24.20;100208.56;5049352;28;20134;-69
2021/03/16 06:45:52;;;;;;;1.60;1.40;;;;;;;12.20;24.27;100209.47;5050208;28;20056;-68
2021/03/16 06:48:38;;;;;;;2.78;1.40;;;;;;;12.35;23.93;100224.22;5034776;28;20051;-67
2021/03/16 06:51:29;;;;;;;4.50;1.20;;;;;;;12.57;23.81;100226.47;5040039;28;20052;-68
2021/03/16 06:54:22;;;;;;;1.92;1.20;;;;;;;12.70;23.16;100240.50;5035990;28;20142;-68
2021/03/16 06:57:09;;;;;;;3.60;1.20;;;;;;;13.00;23.20;100248.31;5039367;28;20562;-68
2021/03/16 07:00:05;;;;;;;1.63;1.08;;;;;;;13.35;22.96;100245.34;5037810;28;20044;-68
2021/03/16 07:02:50;;;;;;;3.28;0.93;;;;;;;13.79;22.11;100254.81;5035365;28;20133;-67
2021/03/16 07:05:35;;;;;;;5.72;1.20;;;;;;;14.02;21.89;100258.63;5048433;28;20427;-65
2021/03/16 07:08:20;;;;;;;1.23;0.88;;;;;;;14.26;21.48;100256.19;5045659;28;20530;-67
2021/03/16 07:11:11;;;;;;;1.42;1.15;;;;;;;14.81;20.73;100274.41;5051337;28;20171;-68
2021/03/16 07:13:59;;;;;;;1.70;0.80;;;;;;;15.52;19.85;100277.44;5047844;28;20071;-65
2021/03/16 07:16:45;;;;;;;1.08;1.00;;;;;;;16.33;19.51;100277.75;5051373;28;20052;-66
2021/03/16 07:19:30;;;;;;;1.70;1.00;;;;;;;16.97;18.61;100282.66;5050014;28;20074;-64
2021/03/16 07:22:20;;;;;;;4.22;0.95;;;;;;;17.51;18.10;100292.53;5049634;28;20048;-66
2021/03/16 07:25:09;;;;;;;2.05;1.27;;;;;;;17.97;17.69;100294.22;5052334;28;20052;-65
2021/03/16 07:27:56;;;;;;;5.28;1.02;;;;;;;18.01;17.33;100295.66;5055488;28;20151;-66
2021/03/16 07:30:50;;;;;;;0.80;0.80;;;;;;;18.61;17.23;100288.13;5054577;28;20061;-65
2021/03/16 07:33:36;;;;;;;5.15;0.90;;;;;;;19.36;16.33;100307.28;5053874;28;20098;-65
2021/03/16 07:36:22;;;;;;;0.70;0.70;;;;;;;18.91;16.79;100300.59;5051823;28;20411;-65
2021/03/16 07:39:09;;;;;;;4.38;1.15;;;;;;;18.88;16.63;100306.16;5052748;28;20051;-65
2021/03/16 07:41:55;;;;;;;5.35;2.35;;;;;;;19.79;16.40;100316.81;5050399;28;20142;-65
2021/03/16 07:44:44;;;;;;;1.60;0.95;;;;;;;19.79;15.21;100319.47;5051160;28;20129;-64
2021/03/16 07:47:36;;;;;;;5.50;0.80;;;;;;;19.28;15.55;100314.19;5046346;28;20091;-65
2021/03/16 07:50:26;;;;;;;1.50;0.80;;;;;;;19.68;16.11;100321.38;5051535;28;20064;-64
2021/03/16 07:53:11;;;;;;;4.30;0.77;;;;;;;20.09;15.97;100320.38;5050744;28;20047;-69
2021/03/16 07:56:05;;;;;;;1.90;0.82;;;;;;;20.52;15.86;100321.88;5043311;28;20668;-72
2021/03/16 07:58:50;;;;;;;2.83;1.23;;;;;;;20.35;16.09;100329.50;5036794;28;20127;-66
2021/03/16 08:01:50;;;;;;;5.50;0.98;;;;;;;20.71;15.82;100337.75;5038147;28;20377;-71
2021/03/16 08:04:40;;;;;;;2.22;0.80;;;;;;;20.70;15.21;100346.69;5034174;28;20048;-74
2021/03/16 08:07:28;;;;;;;1.70;0.70;;;;;;;20.87;15.05;100348.63;5035601;28;20111;-69
2021/03/16 08:10:25;;;;;;;2.88;1.00;;;;;;;21.08;15.11;100350.28;5036735;28;20052;-70
2021/03/16 08:13:18;;;;;;;1.75;0.80;;;;;;;21.48;14.78;100352.75;5034623;28;20057;-67
2021/03/16 08:16:12;;;;;;;1.30;0.88;;;;;;;21.41;15.08;100349.84;5036184;28;20064;-68
2021/03/16 08:19:07;;;;;;;3.50;0.95;;;;;;;21.78;14.80;100354.28;5049739;28;21656;-65
2021/03/16 08:21:57;;;;;;;4.30;1.00;;;;;;;21.94;14.61;100357.19;5052327;28;20190;-68
2021/03/16 08:24:47;;;;;;;1.25;0.73;;;;;;;22.00;14.43;100360.19;5047573;28;20048;-72
2021/03/16 08:27:38;;;;;;;4.78;0.95;;;;;;;22.08;15.11;100355.00;5051525;28;20060;-74
2021/03/16 08:30:25;;;;;;;2.17;1.08;;;;;;;22.53;14.92;100357.69;5035949;28;20061;-73
2021/03/16 08:33:13;;;;;;;4.55;0.90;;;;;;;22.25;14.48;100356.88;5050247;28;20055;-72
2021/03/16 08:35:58;;;;;;;0.95;0.73;;;;;;;22.41;14.67;100356.22;5052769;28;20060;-75
2021/03/16 08:38:44;;;;;;;5.15;1.02;;;;;;;22.56;14.39;100365.34;5052210;28;20567;-74
2021/03/16 08:41:29;;;;;;;2.38;1.10;;;;;;;23.42;14.17;100370.06;5052129;28;20130;-77
2021/03/16 08:44:16;;;;;;;2.10;1.25;;;;;;;23.20;13.76;100369.56;5046172;28;20055;-74
2021/03/16 08:47:10;;;;;;;1.23;0.77;;;;;;;23.49;13.63;100374.63;5046289;28;20056;-73
2021/03/16 08:49:56;;;;;;;1.27;0.82;;;;;;;23.76;13.84;100370.13;5052572;28;20172;-73
2021/03/16 08:52:41;;;;;;;2.38;1.00;;;;;;;23.50;13.93;100365.63;5046853;28;20043;-72
2021/03/16 08:55:29;;;;;;;2.28;1.00;;;;;;;23.91;13.42;100363.19;5048114;28;20044;-75
2021/03/16 08:58:13;;;;;;;3.03;1.92;;;;;;;24.51;13.48;100370.25;5047632;28;20063;-74
2021/03/16 09:00:58;;;;;;;5.95;1.15;;;;;;;24.44;13.46;100380.72;5037059;28;20044;-73
2021/03/16 09:03:44;;;;;;;4.60;1.27;;;;;;;24.41;13.44;100375.72;5037672;28;20530;-75
2021/03/16 09:06:29;;;;;;;3.03;1.20;;;;;;;23.93;14.24;100381.69;5039263;28;20056;-73
2021/03/16 09:09:23;;;;;;;4.05;1.10;;;;;;;23.48;14.16;100378.25;5050262;28;20040;-73
2021/03/16 09:12:09;;;;;;;2.10;1.20;;;;;;;22.89;15.07;100376.31;5049554;28;20521;-74
2021/03/16 09:14:54;;;;;;;1.48;1.10;;;;;;;22.58;15.77;100384.63;5051402;28;20052;-74
2021/03/16 09:17:42;;;;;;;1.50;1.40;;;;;;;21.19;16.84;100387.22;5050965;28;20171;-73
2021/03/16 09:20:29;;;;;;;6.40;2.50;;;;;;;20.81;17.01;100388.09;5048309;28;20407;-73
2021/03/16 09:23:14;;;;;;;5.53;1.60;;;;;;;20.36;17.71;100388.56;5048284;28;20052;-73
2021/03/16 09:26:00;;;;;;;1.98;1.42;;;;;;;19.55;18.36;100396.44;5051477;28;20163;-73
2021/03/16 09:28:49;;;;;;;1.50;0.90;;;;;;;19.11;18.15;100389.59;5050757;28;20103;-75
2021/03/16 09:31:34;;;;;;;2.40;1.02;;;;;;;18.77;17.55;100396.84;5040442;28;20056;-73
2021/03/16 09:34:20;;;;;;;2.78;0.98;;;;;;;18.40;16.95;100393.66;5036554;28;20052;-73
2021/03/16 09:37:09;;;;;;;2.15;0.80;;;;;;;18.25;17.08;100386.00;5041115;28;20072;-73
2021/03/16 09:40:05;;;;;;;4.07;1.55;;;;;;;18.13;17.79;100394.91;5029527;28;20067;-77
2021/03/16 09:42:49;;;;;;;2.75;0.90;;;;;;;17.97;18.06;100394.44;5035777;28;20044;-73
2021/03/16 09:45:23;;;;;;;2.72;1.15;;;;;;;17.97;18.09;100389.16;5040912;28;20040;-72
2021/03/16 09:47:51;;;;;;;2.67;1.00;;;;;;;17.72;18.11;100406.00;5034965;28;20091;-76
2021/03/16 09:50:29;;;;;;;1.52;0.90;;;;;;;17.53;18.16;100393.44;5037598;28;20052;-76
2021/03/16 09:53:04;;;;;;;2.40;1.50;;;;;;;17.58;18.69;100399.19;5039154;28;20045;-76
2021/03/16 09:55:33;;;;;;;2.58;1.02;;;;;;;17.29;18.97;100389.03;5040175;28;20048;-76
2021/03/16 09:58:00;;;;;;;4.80;0.95;;;;;;;17.38;19.25;100402.50;5048036;28;20162;-76
2021/03/16 10:00:28;;;;;;;1.77;0.90;;;;;;;17.33;18.77;100388.81;5044372;28;20087;-72
2021/03/16 10:03:07;;;;;;;1.67;1.05;;;;;;;17.27;19.04;100390.13;5039216;28;20155;-77
2021/03/16 10:05:34;;;;;;;5.57;1.70;;;;;;;17.31;18.64;100390.72;5038585;28;20062;-73
2021/03/16 10:08:01;;;;;;;5.47;0.82;;;;;;;17.17;18.95;100391.78;5037599;28;20155;-71
2021/03/16 10:10:33;;;;;;;1.23;1.02;;;;;;;16.97;18.92;100393.25;5039676;28;20107;-72
2021/03/16 10:13:06;;;;;;;3.35;0.90;;;;;;;17.12;19.38;100393.91;5039539;28;20041;-71
2021/03/16 10:15:46;;;;;;;1.13;0.82;;;;;;;16.84;18.83;100400.41;5042726;28;20052;-75
2021/03/16 10:18:18;;;;;;;3.45;1.00;;;;;;;16.67;19.23;100397.19;5037900;28;20049;-73
2021/03/16 10:20:46;;;;;;;2.60;1.27;;;;;;;16.81;19.55;100390.09;5039282;28;20103;-73
2021/03/16 10:23:22;;;;;;;5.45;1.27;;;;;;;16.84;18.68;100387.25;5041814;28;20084;-74
2021/03/16 10:26:08;;;;;;;1.67;0.80;;;;;;;16.91;18.93;100384.03;5046281;28;20071;-74
2021/03/16 10:28:46;;;;;;;6.47;0.70;;;;;;;16.73;19.19;100390.66;5038160;28;20095;-73
2021/03/16 10:31:19;;;;;;;4.05;1.02;;;;;;;16.74;19.23;100387.06;5041054;28;20041;-76
2021/03/16 10:33:54;;;;;;;1.05;0.82;;;;;;;16.69;19.71;100386.53;5042135;28;20044;-74
2021/03/16 10:36:24;;;;;;;2.67;0.90;;;;;;;16.61;19.64;100391.50;5048714;28;20060;-75
2021/03/16 10:38:51;;;;;;;2.90;1.25;;;;;;;16.80;19.30;100381.34;5049987;28;20065;-71
2021/03/16 10:41:20;;;;;;;1.92;1.15;;;;;;;16.75;19.67;100381.69;5049455;28;20075;-73
2021/03/16 10:43:47;;;;;;;2.40;0.90;;;;;;;16.68;19.61;100383.06;5046875;28;20041;-76
2021/03/16 10:46:14;;;;;;;6.35;1.30;;;;;;;16.67;19.81;100386.66;5047730;28;20048;-75
2021/03/16 10:48:41;;;;;;;5.88;0.90;;;;;;;16.57;19.82;100385.63;5045801;28;20095;-74
2021/03/16 10:51:08;;;;;;;5.13;0.60;;;;;;;16.45;18.98;100387.34;5048616;28;20565;-75
2021/03/16 10:53:35;;;;;;;1.95;0.77;;;;;;;16.17;18.77;100383.22;5048366;28;20123;-66
2021/03/16 10:56:05;;;;;;;3.22;0.93;;;;;;;16.38;19.29;100386.13;5045995;28;20041;-67
2021/03/16 10:58:32;;;;;;;2.00;1.05;;;;;;;16.35;19.63;100382.84;5047063;28;20041;-66
2021/03/16 11:00:59;;;;;;;1.40;1.00;;;;;;;16.17;19.65;100388.50;5048852;28;20060;-66
2021/03/16 11:03:30;;;;;;;3.10;1.77;;;;;;;16.13;19.41;100388.81;5052611;28;20428;-67
2021/03/16 11:05:57;;;;;;;1.50;0.85;;;;;;;16.15;19.00;100385.13;5050298;28;20048;-67
2021/03/16 11:08:25;;;;;;;2.33;0.93;;;;;;;15.94;17.77;100384.84;5050966;28;20041;-67
2021/03/16 11:10:51;;;;;;;1.17;0.90;;;;;;;16.12;19.28;100384.50;5046504;28;20087;-70
2021/03/16 11:13:18;;;;;;;2.55;0.73;;;;;;;16.06;19.49;100380.53;5049900;28;20049;-71
2021/03/16 11:15:46;;;;;;;1.88;1.33;;;;;;;15.93;19.39;100384.97;5051823;28;20051;-67
2021/03/16 11:18:13;;;;;;;4.82;1.17;;;;;;;16.02;19.28;100389.56;5051533;28;20060;-71
2021/03/16 11:20:40;;;;;;;4.95;2.45;;;;;;;16.10;18.45;100386.41;5052212;28;20041;-70
2021/03/16 11:23:06;;;;;;;7.68;1.33;;;;;;;16.15;19.62;100390.41;5052021;28;21702;-68
2021/03/16 11:25:33;;;;;;;2.50;0.80;;;;;;;16.30;19.80;100384.97;5053496;28;20381;-69
2021/03/16 11:27:59;;;;;;;3.45;1.25;;;;;;;16.20;19.54;100379.56;5053655;28;20091;-71
2021/03/16 11:30:29;;;;;;;0.93;0.90;;;;;;;16.19;18.71;100378.72;5050973;28;20434;-73
2021/03/16 11:32:56;;;;;;;0.75;0.75;;;;;;;16.20;18.75;100388.28;5050946;28;20045;-69
2021/03/16 11:35:41;;;;;;;1.10;0.85;;;;;;;16.08;17.94;100377.78;5045182;28;20049;-66
2021/03/16 11:38:26;;;;;;;2.50;0.93;;;;;;;16.26;17.93;100376.47;5052680;28;20167;-67
2021/03/16 11:41:12;;;;;;;2.15;0.95;;;;;;;16.09;17.19;100375.06;5051966;28;20407;-67
2021/03/16 11:43:57;;;;;;;0.98;0.90;;;;;;;15.95;16.93;100383.91;5053435;28;20098;-66
2021/03/16 11:46:42;;;;;;;1.63;0.70;;;;;;;16.14;17.43;100372.94;5042835;28;20412;-68
2021/03/16 11:49:27;;;;;;;1.10;0.57;;;;;;;16.08;14.89;100377.78;5052994;28;20048;-67
2021/03/16 11:52:12;;;;;;;1.05;0.60;;;;;;;16.12;15.67;100372.19;5049971;28;20048;-67
2021/03/16 11:54:57;;;;;;;1.17;0.80;;;;;;;16.12;15.91;100373.97;5045633;28;20052;-67
2021/03/16 11:57:42;;;;;;;0.77;0.70;;;;;;;16.22;15.49;100364.50;5046677;28;20081;-67
2021/03/16 12:00:27;;;;;;;0.93;0.68;;;;;;;16.07;15.05;100366.41;5048979;28;20055;-67
2021/03/16 12:03:14;;;;;;;1.60;0.68;;;;;;;16.12;15.83;100361.66;5049665;28;20861;-65
2021/03/16 12:06:02;;;;;;;7.20;1.02;;;;;;;16.04;16.02;100356.13;5051435;28;20056;-68
2021/03/16 12:08:48;;;;;;;1.60;1.50;;;;;;;15.83;15.28;100358.50;5050032;28;20048;-67
2021/03/16 12:11:34;;;;;;;2.03;1.30;;;;;;;15.73;15.98;100357.44;5050465;28;20071;-64
2021/03/16 12:14:19;;;;;;;0.95;0.90;;;;;;;15.83;15.81;100350.59;5052058;28;20179;-64
2021/03/16 12:17:04;;;;;;;2.17;0.93;;;;;;;15.81;15.99;100356.91;5052179;28;20652;-66
2021/03/16 12:19:49;;;;;;;2.08;1.25;;;;;;;15.93;15.96;100348.16;5053665;28;20094;-66
2021/03/16 12:22:34;;;;;;;1.40;0.80;;;;;;;16.08;16.09;100338.34;5052157;28;20102;-66
2021/03/16 12:25:21;;;;;;;3.45;1.00;;;;;;;15.96;15.18;100358.44;5052472;28;20052;-66
2021/03/16 12:28:08;;;;;;;4.13;1.25;;;;;;;15.96;15.51;100347.94;5052485;28;20162;-65
2021/03/16 12:30:55;;;;;;;0.80;0.80;;;;;;;15.86;15.58;100346.91;5047627;28;20048;-65
2021/03/16 12:33:40;;;;;;;0.80;0.80;;;;;;;15.90;15.56;100359.72;5044409;28;20135;-66
2021/03/16 12:36:26;;;;;;;0.63;0.63;;;;;;;15.54;15.29;100344.69;5043752;28;20419;-66